sensor_id;sensor_type;location;lat;lon;timestamp;P1;P2;P0
74333;PMS5003;62753;40.394;-80.022;2023-12-20T00:01:14;9;8;
74333;PMS5003;62753;40.394;-80.022;2023-12-20T00:03:38;11;10;
74333;PMS5003;62753;40.394;-80.022;2023-12-20T00:06:04;13;9;
74333;PMS5003;62753;40.394;-80.022;2023-12-20T00:08:29;10;9;
74333;PMS5003;62753;40.394;-80.022;2023-12-20T00:10:55;13;10;
74333;PMS5003;62753;40.394;-80.022;2023-12-20T00:13:20;11;10;
74333;PMS5003;62753;40.394;-80.022;2023-12-20T00:15:46;9;8;
74333;PMS5003;62753;40.394;-80.022;2023-12-20T00:18:12;15;13;
74333;PMS5003;62753;40.394;-80.022;2023-12-20T00:20:37;9;9;
74333;PMS5003;62753;40.394;-80.022;2023-12-20T00:23:03;11;10;
74333;PMS5003;62753;40.394;-80.022;2023-12-20T00:25:29;11;10;
74333;PMS5003;62753;40.394;-80.022;2023-12-20T00:27:54;7;7;
74333;PMS5003;62753;40.394;-80.022;2023-12-20T00:30:21;9;7;
74333;PMS5003;62753;40.394;-80.022;2023-12-20T00:32:47;9;8;
74333;PMS5003;62753;40.394;-80.022;2023-12-20T00:35:13;7;7;
74333;PMS5003;62753;40.394;-80.022;2023-12-20T00:37:37;10;8;
74333;PMS5003;62753;40.394;-80.022;2023-12-20T00:40:03;10;9;
74333;PMS5003;62753;40.394;-80.022;2023-12-20T00:42:28;5;5;
74333;PMS5003;62753;40.394;-80.022;2023-12-20T00:44:54;11;9;
74333;PMS5003;62753;40.394;-80.022;2023-12-20T00:47:21;9;8;
74333;PMS5003;62753;40.394;-80.022;2023-12-20T00:49:46;9;9;
74333;PMS5003;62753;40.394;-80.022;2023-12-20T00:52:11;9;8;
74333;PMS5003;62753;40.394;-80.022;2023-12-20T00:54:37;7;5;
74333;PMS5003;62753;40.394;-80.022;2023-12-20T00:57:04;7;7;
74333;PMS5003;62753;40.394;-80.022;2023-12-20T00:59:28;8;5;
74333;PMS5003;62753;40.394;-80.022;2023-12-20T01:01:54;8;8;
74333;PMS5003;62753;40.394;-80.022;2023-12-20T01:04:20;8;8;
74333;PMS5003;62753;40.394;-80.022;2023-12-20T01:06:45;7;7;
74333;PMS5003;62753;40.394;-80.022;2023-12-20T01:09:11;10;9;
74333;PMS5003;62753;40.394;-80.022;2023-12-20T01:11:37;7;5;
74333;PMS5003;62753;40.394;-80.022;2023-12-20T01:14:03;7;7;
74333;PMS5003;62753;40.394;-80.022;2023-12-20T01:16:29;5;5;
74333;PMS5003;62753;40.394;-80.022;2023-12-20T01:18:55;8;5;
74333;PMS5003;62753;40.394;-80.022;2023-12-20T01:21:20;7;7;
74333;PMS5003;62753;40.394;-80.022;2023-12-20T01:23:45;8;7;
74333;PMS5003;62753;40.394;-80.022;2023-12-20T01:26:12;8;7;
74333;PMS5003;62753;40.394;-80.022;2023-12-20T01:28:37;8;7;
74333;PMS5003;62753;40.394;-80.022;2023-12-20T01:31:03;4;4;
74333;PMS5003;62753;40.394;-80.022;2023-12-20T01:33:28;7;5;
74333;PMS5003;62753;40.394;-80.022;2023-12-20T01:35:54;8;8;
74333;PMS5003;62753;40.394;-80.022;2023-12-20T01:38:20;10;9;
74333;PMS5003;62753;40.394;-80.022;2023-12-20T01:40:48;5;4;
74333;PMS5003;62753;40.394;-80.022;2023-12-20T01:43:12;8;7;
74333;PMS5003;62753;40.394;-80.022;2023-12-20T01:45:38;8;7;
74333;PMS5003;62753;40.394;-80.022;2023-12-20T01:48:03;8;7;
74333;PMS5003;62753;40.394;-80.022;2023-12-20T01:50:28;7;7;
74333;PMS5003;62753;40.394;-80.022;2023-12-20T01:52:54;5;5;
74333;PMS5003;62753;40.394;-80.022;2023-12-20T01:55:21;10;8;
74333;PMS5003;62753;40.394;-80.022;2023-12-20T01:57:47;7;7;
74333;PMS5003;62753;40.394;-80.022;2023-12-20T02:00:12;8;7;
74333;PMS5003;62753;40.394;-80.022;2023-12-20T02:02:37;9;8;
74333;PMS5003;62753;40.394;-80.022;2023-12-20T02:05:07;7;7;
74333;PMS5003;62753;40.394;-80.022;2023-12-20T02:07:28;7;7;
74333;PMS5003;62753;40.394;-80.022;2023-12-20T02:09:54;6;6;
74333;PMS5003;62753;40.394;-80.022;2023-12-20T02:12:19;7;7;
74333;PMS5003;62753;40.394;-80.022;2023-12-20T02:14:46;10;8;
74333;PMS5003;62753;40.394;-80.022;2023-12-20T02:17:11;7;7;
74333;PMS5003;62753;40.394;-80.022;2023-12-20T02:19:37;9;7;
74333;PMS5003;62753;40.394;-80.022;2023-12-20T02:22:06;8;7;
74333;PMS5003;62753;40.394;-80.022;2023-12-20T02:24:28;7;7;
74333;PMS5003;62753;40.394;-80.022;2023-12-20T02:26:54;7;4;
74333;PMS5003;62753;40.394;-80.022;2023-12-20T02:29:22;7;7;
74333;PMS5003;62753;40.394;-80.022;2023-12-20T02:31:45;9;8;
74333;PMS5003;62753;40.394;-80.022;2023-12-20T02:34:11;7;7;
74333;PMS5003;62753;40.394;-80.022;2023-12-20T02:36:37;8;8;
74333;PMS5003;62753;40.394;-80.022;2023-12-20T02:39:03;8;7;
74333;PMS5003;62753;40.394;-80.022;2023-12-20T02:41:28;10;9;
74333;PMS5003;62753;40.394;-80.022;2023-12-20T02:43:56;9;8;
74333;PMS5003;62753;40.394;-80.022;2023-12-20T02:46:21;8;7;
74333;PMS5003;62753;40.394;-80.022;2023-12-20T02:48:45;9;8;
74333;PMS5003;62753;40.394;-80.022;2023-12-20T02:51:12;13;10;
74333;PMS5003;62753;40.394;-80.022;2023-12-20T02:53:37;9;7;
74333;PMS5003;62753;40.394;-80.022;2023-12-20T02:56:04;13;9;
74333;PMS5003;62753;40.394;-80.022;2023-12-20T02:58:28;10;9;
74333;PMS5003;62753;40.394;-80.022;2023-12-20T03:00:54;10;10;
74333;PMS5003;62753;40.394;-80.022;2023-12-20T03:03:20;10;9;
74333;PMS5003;62753;40.394;-80.022;2023-12-20T03:05:45;8;7;
74333;PMS5003;62753;40.394;-80.022;2023-12-20T03:08:11;13;12;
74333;PMS5003;62753;40.394;-80.022;2023-12-20T03:10:37;10;8;
74333;PMS5003;62753;40.394;-80.022;2023-12-20T03:13:03;12;12;
74333;PMS5003;62753;40.394;-80.022;2023-12-20T03:15:29;10;9;
74333;PMS5003;62753;40.394;-80.022;2023-12-20T03:17:57;7;7;
74333;PMS5003;62753;40.394;-80.022;2023-12-20T03:20:20;8;7;
74333;PMS5003;62753;40.394;-80.022;2023-12-20T03:22:48;10;9;
74333;PMS5003;62753;40.394;-80.022;2023-12-20T03:25:11;12;10;
74333;PMS5003;62753;40.394;-80.022;2023-12-20T03:27:37;10;9;
74333;PMS5003;62753;40.394;-80.022;2023-12-20T03:30:04;12;9;
74333;PMS5003;62753;40.394;-80.022;2023-12-20T03:32:28;9;8;
74333;PMS5003;62753;40.394;-80.022;2023-12-20T03:34:54;15;12;
74333;PMS5003;62753;40.394;-80.022;2023-12-20T03:37:22;12;10;
74333;PMS5003;62753;40.394;-80.022;2023-12-20T03:39:46;13;10;
74333;PMS5003;62753;40.394;-80.022;2023-12-20T03:42:11;14;13;
74333;PMS5003;62753;40.394;-80.022;2023-12-20T03:44:38;10;9;
74333;PMS5003;62753;40.394;-80.022;2023-12-20T03:47:05;10;10;
74333;PMS5003;62753;40.394;-80.022;2023-12-20T03:49:28;15;13;
74333;PMS5003;62753;40.394;-80.022;2023-12-20T03:51:53;16;10;
74333;PMS5003;62753;40.394;-80.022;2023-12-20T03:54:18;16;13;
74333;PMS5003;62753;40.394;-80.022;2023-12-20T03:56:44;13;13;
74333;PMS5003;62753;40.394;-80.022;2023-12-20T03:59:10;14;12;
74333;PMS5003;62753;40.394;-80.022;2023-12-20T04:01:35;12;10;
74333;PMS5003;62753;40.394;-80.022;2023-12-20T04:04:02;17;13;
74333;PMS5003;62753;40.394;-80.022;2023-12-20T04:06:26;15;12;
74333;PMS5003;62753;40.394;-80.022;2023-12-20T04:08:52;12;11;
74333;PMS5003;62753;40.394;-80.022;2023-12-20T04:11:18;11;11;
74333;PMS5003;62753;40.394;-80.022;2023-12-20T04:13:44;18;13;
74333;PMS5003;62753;40.394;-80.022;2023-12-20T04:16:09;17;12;
74333;PMS5003;62753;40.394;-80.022;2023-12-20T04:18:34;13;13;
74333;PMS5003;62753;40.394;-80.022;2023-12-20T04:21:00;13;13;
74333;PMS5003;62753;40.394;-80.022;2023-12-20T04:23:26;13;10;
74333;PMS5003;62753;40.394;-80.022;2023-12-20T04:25:53;19;16;
74333;PMS5003;62753;40.394;-80.022;2023-12-20T04:28:16;14;12;
74333;PMS5003;62753;40.394;-80.022;2023-12-20T04:30:42;16;13;
74333;PMS5003;62753;40.394;-80.022;2023-12-20T04:33:07;13;12;
74333;PMS5003;62753;40.394;-80.022;2023-12-20T04:35:33;15;13;
74333;PMS5003;62753;40.394;-80.022;2023-12-20T04:37:59;12;12;
74333;PMS5003;62753;40.394;-80.022;2023-12-20T04:40:24;18;14;
74333;PMS5003;62753;40.394;-80.022;2023-12-20T04:42:50;20;15;
74333;PMS5003;62753;40.394;-80.022;2023-12-20T04:45:15;23;14;
74333;PMS5003;62753;40.394;-80.022;2023-12-20T04:47:41;14;14;
74333;PMS5003;62753;40.394;-80.022;2023-12-20T04:50:08;18;13;
74333;PMS5003;62753;40.394;-80.022;2023-12-20T04:52:34;13;13;
74333;PMS5003;62753;40.394;-80.022;2023-12-20T04:54:58;17;13;
74333;PMS5003;62753;40.394;-80.022;2023-12-20T04:57:23;14;14;
74333;PMS5003;62753;40.394;-80.022;2023-12-20T04:59:49;13;13;
74333;PMS5003;62753;40.394;-80.022;2023-12-20T05:02:15;13;13;
74333;PMS5003;62753;40.394;-80.022;2023-12-20T05:04:42;14;12;
74333;PMS5003;62753;40.394;-80.022;2023-12-20T05:07:06;18;15;
74333;PMS5003;62753;40.394;-80.022;2023-12-20T05:09:32;12;12;
74333;PMS5003;62753;40.394;-80.022;2023-12-20T05:11:58;19;17;
74333;PMS5003;62753;40.394;-80.022;2023-12-20T05:14:24;13;12;
74333;PMS5003;62753;40.394;-80.022;2023-12-20T05:16:49;15;14;
74333;PMS5003;62753;40.394;-80.022;2023-12-20T05:19:16;15;13;
74333;PMS5003;62753;40.394;-80.022;2023-12-20T05:21:40;18;15;
74333;PMS5003;62753;40.394;-80.022;2023-12-20T05:24:06;17;12;
74333;PMS5003;62753;40.394;-80.022;2023-12-20T05:26:31;18;15;
74333;PMS5003;62753;40.394;-80.022;2023-12-20T05:28:56;19;15;
74333;PMS5003;62753;40.394;-80.022;2023-12-20T05:31:24;20;18;
74333;PMS5003;62753;40.394;-80.022;2023-12-20T05:33:49;19;18;
74333;PMS5003;62753;40.394;-80.022;2023-12-20T05:36:13;20;18;
74333;PMS5003;62753;40.394;-80.022;2023-12-20T05:38:38;20;15;
74333;PMS5003;62753;40.394;-80.022;2023-12-20T05:41:04;23;18;
74333;PMS5003;62753;40.394;-80.022;2023-12-20T05:43:29;17;14;
74333;PMS5003;62753;40.394;-80.022;2023-12-20T05:45:55;13;13;
74333;PMS5003;62753;40.394;-80.022;2023-12-20T05:48:20;20;17;
74333;PMS5003;62753;40.394;-80.022;2023-12-20T05:50:46;22;14;
74333;PMS5003;62753;40.394;-80.022;2023-12-20T05:53:12;18;15;
74333;PMS5003;62753;40.394;-80.022;2023-12-20T05:55:38;27;20;
74333;PMS5003;62753;40.394;-80.022;2023-12-20T05:58:03;20;18;
74333;PMS5003;62753;40.394;-80.022;2023-12-20T06:00:29;18;17;
74333;PMS5003;62753;40.394;-80.022;2023-12-20T06:02:55;19;19;
74333;PMS5003;62753;40.394;-80.022;2023-12-20T06:05:20;19;17;
74333;PMS5003;62753;40.394;-80.022;2023-12-20T06:07:48;14;13;
74333;PMS5003;62753;40.394;-80.022;2023-12-20T06:10:12;17;13;
74333;PMS5003;62753;40.394;-80.022;2023-12-20T06:12:37;17;17;
74333;PMS5003;62753;40.394;-80.022;2023-12-20T06:15:03;19;15;
74333;PMS5003;62753;40.394;-80.022;2023-12-20T06:17:29;18;14;
74333;PMS5003;62753;40.394;-80.022;2023-12-20T06:19:55;22;17;
74333;PMS5003;62753;40.394;-80.022;2023-12-20T06:22:20;13;13;
74333;PMS5003;62753;40.394;-80.022;2023-12-20T06:24:45;13;13;
74333;PMS5003;62753;40.394;-80.022;2023-12-20T06:27:10;13;12;
74333;PMS5003;62753;40.394;-80.022;2023-12-20T06:29:36;22;14;
74333;PMS5003;62753;40.394;-80.022;2023-12-20T06:32:02;18;13;
74333;PMS5003;62753;40.394;-80.022;2023-12-20T06:34:27;25;18;
74333;PMS5003;62753;40.394;-80.022;2023-12-20T06:36:53;19;17;
74333;PMS5003;62753;40.394;-80.022;2023-12-20T06:39:20;19;18;
74333;PMS5003;62753;40.394;-80.022;2023-12-20T06:41:44;21;18;
74333;PMS5003;62753;40.394;-80.022;2023-12-20T06:44:10;24;17;
74333;PMS5003;62753;40.394;-80.022;2023-12-20T06:46:35;22;17;
74333;PMS5003;62753;40.394;-80.022;2023-12-20T06:49:00;17;16;
74333;PMS5003;62753;40.394;-80.022;2023-12-20T06:51:27;19;18;
74333;PMS5003;62753;40.394;-80.022;2023-12-20T06:53:52;16;14;
74333;PMS5003;62753;40.394;-80.022;2023-12-20T06:56:18;21;17;
74333;PMS5003;62753;40.394;-80.022;2023-12-20T06:58:43;22;13;
74333;PMS5003;62753;40.394;-80.022;2023-12-20T07:01:11;17;14;
74333;PMS5003;62753;40.394;-80.022;2023-12-20T07:03:35;16;16;
74333;PMS5003;62753;40.394;-80.022;2023-12-20T07:06:00;16;12;
74333;PMS5003;62753;40.394;-80.022;2023-12-20T07:08:26;18;15;
74333;PMS5003;62753;40.394;-80.022;2023-12-20T07:10:51;17;16;
74333;PMS5003;62753;40.394;-80.022;2023-12-20T07:13:18;13;13;
74333;PMS5003;62753;40.394;-80.022;2023-12-20T07:15:43;17;16;
74333;PMS5003;62753;40.394;-80.022;2023-12-20T07:18:08;16;14;
74333;PMS5003;62753;40.394;-80.022;2023-12-20T07:20:34;18;17;
74333;PMS5003;62753;40.394;-80.022;2023-12-20T07:23:00;17;16;
74333;PMS5003;62753;40.394;-80.022;2023-12-20T07:25:25;15;12;
74333;PMS5003;62753;40.394;-80.022;2023-12-20T07:27:51;20;16;
74333;PMS5003;62753;40.394;-80.022;2023-12-20T07:30:17;16;15;
74333;PMS5003;62753;40.394;-80.022;2023-12-20T07:32:42;19;17;
74333;PMS5003;62753;40.394;-80.022;2023-12-20T07:35:09;16;12;
74333;PMS5003;62753;40.394;-80.022;2023-12-20T07:37:33;17;14;
74333;PMS5003;62753;40.394;-80.022;2023-12-20T07:40:00;14;12;
74333;PMS5003;62753;40.394;-80.022;2023-12-20T07:42:25;14;14;
74333;PMS5003;62753;40.394;-80.022;2023-12-20T07:44:52;17;14;
74333;PMS5003;62753;40.394;-80.022;2023-12-20T07:47:16;12;12;
74333;PMS5003;62753;40.394;-80.022;2023-12-20T07:49:42;13;12;
74333;PMS5003;62753;40.394;-80.022;2023-12-20T07:52:08;18;14;
74333;PMS5003;62753;40.394;-80.022;2023-12-20T07:54:33;13;11;
74333;PMS5003;62753;40.394;-80.022;2023-12-20T07:56:59;17;13;
74333;PMS5003;62753;40.394;-80.022;2023-12-20T07:59:24;13;12;
74333;PMS5003;62753;40.394;-80.022;2023-12-20T08:01:50;12;9;
74333;PMS5003;62753;40.394;-80.022;2023-12-20T08:04:15;11;11;
74333;PMS5003;62753;40.394;-80.022;2023-12-20T08:06:41;13;12;
74333;PMS5003;62753;40.394;-80.022;2023-12-20T08:09:08;14;14;
74333;PMS5003;62753;40.394;-80.022;2023-12-20T08:11:34;13;12;
74333;PMS5003;62753;40.394;-80.022;2023-12-20T08:13:59;12;12;
74333;PMS5003;62753;40.394;-80.022;2023-12-20T08:16:25;13;12;
74333;PMS5003;62753;40.394;-80.022;2023-12-20T08:18:50;13;11;
74333;PMS5003;62753;40.394;-80.022;2023-12-20T08:21:15;13;12;
74333;PMS5003;62753;40.394;-80.022;2023-12-20T08:23:41;13;12;
74333;PMS5003;62753;40.394;-80.022;2023-12-20T08:26:06;11;11;
74333;PMS5003;62753;40.394;-80.022;2023-12-20T08:28:33;11;9;
74333;PMS5003;62753;40.394;-80.022;2023-12-20T08:30:59;14;13;
74333;PMS5003;62753;40.394;-80.022;2023-12-20T08:33:23;13;12;
74333;PMS5003;62753;40.394;-80.022;2023-12-20T08:35:49;13;12;
74333;PMS5003;62753;40.394;-80.022;2023-12-20T08:38:15;16;12;
74333;PMS5003;62753;40.394;-80.022;2023-12-20T08:40:41;12;11;
74333;PMS5003;62753;40.394;-80.022;2023-12-20T08:43:06;11;11;
74333;PMS5003;62753;40.394;-80.022;2023-12-20T08:45:32;14;12;
74333;PMS5003;62753;40.394;-80.022;2023-12-20T08:47:59;13;12;
74333;PMS5003;62753;40.394;-80.022;2023-12-20T08:50:25;12;9;
74333;PMS5003;62753;40.394;-80.022;2023-12-20T08:52:51;17;14;
74333;PMS5003;62753;40.394;-80.022;2023-12-20T08:55:15;12;11;
74333;PMS5003;62753;40.394;-80.022;2023-12-20T08:57:41;11;11;
74333;PMS5003;62753;40.394;-80.022;2023-12-20T09:00:07;12;11;
74333;PMS5003;62753;40.394;-80.022;2023-12-20T09:02:32;14;12;
74333;PMS5003;62753;40.394;-80.022;2023-12-20T09:04:59;16;11;
74333;PMS5003;62753;40.394;-80.022;2023-12-20T09:07:23;11;9;
74333;PMS5003;62753;40.394;-80.022;2023-12-20T09:09:52;12;12;
74333;PMS5003;62753;40.394;-80.022;2023-12-20T09:12:15;13;12;
74333;PMS5003;62753;40.394;-80.022;2023-12-20T09:14:40;13;9;
74333;PMS5003;62753;40.394;-80.022;2023-12-20T09:17:06;12;12;
74333;PMS5003;62753;40.394;-80.022;2023-12-20T09:19:31;12;9;
74333;PMS5003;62753;40.394;-80.022;2023-12-20T09:21:57;12;9;
74333;PMS5003;62753;40.394;-80.022;2023-12-20T09:24:22;12;12;
74333;PMS5003;62753;40.394;-80.022;2023-12-20T09:26:48;11;11;
74333;PMS5003;62753;40.394;-80.022;2023-12-20T09:29:14;16;12;
74333;PMS5003;62753;40.394;-80.022;2023-12-20T09:31:39;13;12;
74333;PMS5003;62753;40.394;-80.022;2023-12-20T09:34:05;13;11;
74333;PMS5003;62753;40.394;-80.022;2023-12-20T09:36:31;12;9;
74333;PMS5003;62753;40.394;-80.022;2023-12-20T09:38:57;12;11;
74333;PMS5003;62753;40.394;-80.022;2023-12-20T09:41:23;11;9;
74333;PMS5003;62753;40.394;-80.022;2023-12-20T09:43:50;12;12;
74333;PMS5003;62753;40.394;-80.022;2023-12-20T09:46:14;14;13;
74333;PMS5003;62753;40.394;-80.022;2023-12-20T09:48:39;12;9;
74333;PMS5003;62753;40.394;-80.022;2023-12-20T09:51:05;11;9;
74333;PMS5003;62753;40.394;-80.022;2023-12-20T09:53:32;13;12;
74333;PMS5003;62753;40.394;-80.022;2023-12-20T09:55:57;12;11;
74333;PMS5003;62753;40.394;-80.022;2023-12-20T09:58:22;12;11;
74333;PMS5003;62753;40.394;-80.022;2023-12-20T10:00:47;12;12;
74333;PMS5003;62753;40.394;-80.022;2023-12-20T10:03:13;12;11;
74333;PMS5003;62753;40.394;-80.022;2023-12-20T10:05:39;12;12;
74333;PMS5003;62753;40.394;-80.022;2023-12-20T10:08:05;12;12;
74333;PMS5003;62753;40.394;-80.022;2023-12-20T10:10:30;15;13;
74333;PMS5003;62753;40.394;-80.022;2023-12-20T10:13:03;14;14;
74333;PMS5003;62753;40.394;-80.022;2023-12-20T10:15:21;11;11;
74333;PMS5003;62753;40.394;-80.022;2023-12-20T10:17:48;11;8;
74333;PMS5003;62753;40.394;-80.022;2023-12-20T10:20:13;12;11;
74333;PMS5003;62753;40.394;-80.022;2023-12-20T10:22:39;17;17;
74333;PMS5003;62753;40.394;-80.022;2023-12-20T10:25:05;11;11;
74333;PMS5003;62753;40.394;-80.022;2023-12-20T10:27:30;15;12;
74333;PMS5003;62753;40.394;-80.022;2023-12-20T10:29:58;18;13;
74333;PMS5003;62753;40.394;-80.022;2023-12-20T10:32:23;13;11;
74333;PMS5003;62753;40.394;-80.022;2023-12-20T10:34:47;17;14;
74333;PMS5003;62753;40.394;-80.022;2023-12-20T10:37:12;16;14;
74333;PMS5003;62753;40.394;-80.022;2023-12-20T10:39:40;18;16;
74333;PMS5003;62753;40.394;-80.022;2023-12-20T10:42:04;17;14;
74333;PMS5003;62753;40.394;-80.022;2023-12-20T10:44:29;18;13;
74333;PMS5003;62753;40.394;-80.022;2023-12-20T10:46:55;12;12;
74333;PMS5003;62753;40.394;-80.022;2023-12-20T10:49:21;12;12;
74333;PMS5003;62753;40.394;-80.022;2023-12-20T10:51:46;16;13;
74333;PMS5003;62753;40.394;-80.022;2023-12-20T10:54:12;13;12;
74333;PMS5003;62753;40.394;-80.022;2023-12-20T10:56:37;15;15;
74333;PMS5003;62753;40.394;-80.022;2023-12-20T10:59:03;13;13;
74333;PMS5003;62753;40.394;-80.022;2023-12-20T11:01:29;20;13;
74333;PMS5003;62753;40.394;-80.022;2023-12-20T11:03:55;15;12;
74333;PMS5003;62753;40.394;-80.022;2023-12-20T11:06:25;17;16;
74333;PMS5003;62753;40.394;-80.022;2023-12-20T11:08:47;16;15;
74333;PMS5003;62753;40.394;-80.022;2023-12-20T11:11:13;12;12;
74333;PMS5003;62753;40.394;-80.022;2023-12-20T11:13:40;21;16;
74333;PMS5003;62753;40.394;-80.022;2023-12-20T11:16:03;15;13;
74333;PMS5003;62753;40.394;-80.022;2023-12-20T11:18:28;15;11;
74333;PMS5003;62753;40.394;-80.022;2023-12-20T11:20:53;16;13;
74333;PMS5003;62753;40.394;-80.022;2023-12-20T11:23:19;11;11;
74333;PMS5003;62753;40.394;-80.022;2023-12-20T11:25:48;18;17;
74333;PMS5003;62753;40.394;-80.022;2023-12-20T11:28:11;21;16;
74333;PMS5003;62753;40.394;-80.022;2023-12-20T11:30:42;15;13;
74333;PMS5003;62753;40.394;-80.022;2023-12-20T11:33:03;17;13;
74333;PMS5003;62753;40.394;-80.022;2023-12-20T11:35:28;15;13;
74333;PMS5003;62753;40.394;-80.022;2023-12-20T11:37:53;18;13;
74333;PMS5003;62753;40.394;-80.022;2023-12-20T11:40:19;13;11;
74333;PMS5003;62753;40.394;-80.022;2023-12-20T11:42:45;14;13;
74333;PMS5003;62753;40.394;-80.022;2023-12-20T11:45:10;14;12;
74333;PMS5003;62753;40.394;-80.022;2023-12-20T11:47:36;18;17;
74333;PMS5003;62753;40.394;-80.022;2023-12-20T11:50:03;18;13;
74333;PMS5003;62753;40.394;-80.022;2023-12-20T11:52:28;21;17;
74333;PMS5003;62753;40.394;-80.022;2023-12-20T11:54:52;17;14;
74333;PMS5003;62753;40.394;-80.022;2023-12-20T11:57:18;18;16;
74333;PMS5003;62753;40.394;-80.022;2023-12-20T11:59:45;17;14;
74333;PMS5003;62753;40.394;-80.022;2023-12-20T12:02:11;18;16;
74333;PMS5003;62753;40.394;-80.022;2023-12-20T12:04:35;16;15;
74333;PMS5003;62753;40.394;-80.022;2023-12-20T12:07:01;15;13;
74333;PMS5003;62753;40.394;-80.022;2023-12-20T12:09:26;22;17;
74333;PMS5003;62753;40.394;-80.022;2023-12-20T12:11:51;16;14;
74333;PMS5003;62753;40.394;-80.022;2023-12-20T12:14:17;19;17;
74333;PMS5003;62753;40.394;-80.022;2023-12-20T12:16:45;18;17;
74333;PMS5003;62753;40.394;-80.022;2023-12-20T12:19:10;20;17;
74333;PMS5003;62753;40.394;-80.022;2023-12-20T12:21:35;17;16;
74333;PMS5003;62753;40.394;-80.022;2023-12-20T12:24:08;20;17;
74333;PMS5003;62753;40.394;-80.022;2023-12-20T12:26:25;17;16;
74333;PMS5003;62753;40.394;-80.022;2023-12-20T12:28:51;17;15;
74333;PMS5003;62753;40.394;-80.022;2023-12-20T12:31:18;16;15;
74333;PMS5003;62753;40.394;-80.022;2023-12-20T12:33:42;16;16;
74333;PMS5003;62753;40.394;-80.022;2023-12-20T12:36:08;18;13;
74333;PMS5003;62753;40.394;-80.022;2023-12-20T12:38:34;16;15;
74333;PMS5003;62753;40.394;-80.022;2023-12-20T12:40:58;22;18;
74333;PMS5003;62753;40.394;-80.022;2023-12-20T12:43:26;18;16;
74333;PMS5003;62753;40.394;-80.022;2023-12-20T12:45:51;17;16;
74333;PMS5003;62753;40.394;-80.022;2023-12-20T12:48:17;16;14;
74333;PMS5003;62753;40.394;-80.022;2023-12-20T12:50:45;14;14;
74333;PMS5003;62753;40.394;-80.022;2023-12-20T12:53:07;14;14;
74333;PMS5003;62753;40.394;-80.022;2023-12-20T12:55:34;17;14;
74333;PMS5003;62753;40.394;-80.022;2023-12-20T12:57:59;14;14;
74333;PMS5003;62753;40.394;-80.022;2023-12-20T13:00:24;21;16;
74333;PMS5003;62753;40.394;-80.022;2023-12-20T13:02:50;17;17;
74333;PMS5003;62753;40.394;-80.022;2023-12-20T13:05:15;19;15;
74333;PMS5003;62753;40.394;-80.022;2023-12-20T13:07:41;20;19;
74333;PMS5003;62753;40.394;-80.022;2023-12-20T13:10:07;18;17;
74333;PMS5003;62753;40.394;-80.022;2023-12-20T13:12:32;15;13;
74333;PMS5003;62753;40.394;-80.022;2023-12-20T13:14:57;19;17;
74333;PMS5003;62753;40.394;-80.022;2023-12-20T13:17:23;18;15;
74333;PMS5003;62753;40.394;-80.022;2023-12-20T13:19:48;14;14;
74333;PMS5003;62753;40.394;-80.022;2023-12-20T13:22:14;20;18;
74333;PMS5003;62753;40.394;-80.022;2023-12-20T13:24:42;14;12;
74333;PMS5003;62753;40.394;-80.022;2023-12-20T13:27:05;14;14;
74333;PMS5003;62753;40.394;-80.022;2023-12-20T13:29:31;18;15;
74333;PMS5003;62753;40.394;-80.022;2023-12-20T13:31:58;15;13;
74333;PMS5003;62753;40.394;-80.022;2023-12-20T13:34:22;21;18;
74333;PMS5003;62753;40.394;-80.022;2023-12-20T13:36:48;14;12;
74333;PMS5003;62753;40.394;-80.022;2023-12-20T13:39:14;16;15;
74333;PMS5003;62753;40.394;-80.022;2023-12-20T13:41:39;20;16;
74333;PMS5003;62753;40.394;-80.022;2023-12-20T13:44:05;9;9;
74333;PMS5003;62753;40.394;-80.022;2023-12-20T13:46:30;13;12;
74333;PMS5003;62753;40.394;-80.022;2023-12-20T13:48:55;16;13;
74333;PMS5003;62753;40.394;-80.022;2023-12-20T13:51:22;13;11;
74333;PMS5003;62753;40.394;-80.022;2023-12-20T13:53:47;13;13;
74333;PMS5003;62753;40.394;-80.022;2023-12-20T13:56:12;12;11;
74333;PMS5003;62753;40.394;-80.022;2023-12-20T13:58:38;13;12;
74333;PMS5003;62753;40.394;-80.022;2023-12-20T14:01:04;11;10;
74333;PMS5003;62753;40.394;-80.022;2023-12-20T14:03:29;13;13;
74333;PMS5003;62753;40.394;-80.022;2023-12-20T14:05:54;21;17;
74333;PMS5003;62753;40.394;-80.022;2023-12-20T14:08:20;15;13;
74333;PMS5003;62753;40.394;-80.022;2023-12-20T14:10:46;16;15;
74333;PMS5003;62753;40.394;-80.022;2023-12-20T14:13:12;15;14;
74333;PMS5003;62753;40.394;-80.022;2023-12-20T14:15:37;17;16;
74333;PMS5003;62753;40.394;-80.022;2023-12-20T14:18:03;11;11;
74333;PMS5003;62753;40.394;-80.022;2023-12-20T14:20:28;14;12;
74333;PMS5003;62753;40.394;-80.022;2023-12-20T14:22:54;12;12;
74333;PMS5003;62753;40.394;-80.022;2023-12-20T14:25:21;16;12;
74333;PMS5003;62753;40.394;-80.022;2023-12-20T14:27:45;16;14;
74333;PMS5003;62753;40.394;-80.022;2023-12-20T14:30:11;12;11;
74333;PMS5003;62753;40.394;-80.022;2023-12-20T14:32:37;15;11;
74333;PMS5003;62753;40.394;-80.022;2023-12-20T14:35:03;10;10;
74333;PMS5003;62753;40.394;-80.022;2023-12-20T14:37:28;12;12;
74333;PMS5003;62753;40.394;-80.022;2023-12-20T14:39:53;12;11;
74333;PMS5003;62753;40.394;-80.022;2023-12-20T14:42:22;14;11;
74333;PMS5003;62753;40.394;-80.022;2023-12-20T14:44:45;11;10;
74333;PMS5003;62753;40.394;-80.022;2023-12-20T14:47:10;13;12;
74333;PMS5003;62753;40.394;-80.022;2023-12-20T14:49:39;12;7;
74333;PMS5003;62753;40.394;-80.022;2023-12-20T14:52:01;12;11;
74333;PMS5003;62753;40.394;-80.022;2023-12-20T14:54:28;10;10;
74333;PMS5003;62753;40.394;-80.022;2023-12-20T14:56:52;10;9;
74333;PMS5003;62753;40.394;-80.022;2023-12-20T14:59:17;8;7;
74333;PMS5003;62753;40.394;-80.022;2023-12-20T15:01:44;11;8;
74333;PMS5003;62753;40.394;-80.022;2023-12-20T15:04:09;10;10;
74333;PMS5003;62753;40.394;-80.022;2023-12-20T15:06:34;12;11;
74333;PMS5003;62753;40.394;-80.022;2023-12-20T15:09:00;12;12;
74333;PMS5003;62753;40.394;-80.022;2023-12-20T15:11:27;10;8;
74333;PMS5003;62753;40.394;-80.022;2023-12-20T15:13:52;11;10;
74333;PMS5003;62753;40.394;-80.022;2023-12-20T15:16:16;10;8;
74333;PMS5003;62753;40.394;-80.022;2023-12-20T15:18:42;10;10;
74333;PMS5003;62753;40.394;-80.022;2023-12-20T15:21:10;12;10;
74333;PMS5003;62753;40.394;-80.022;2023-12-20T15:23:33;12;11;
74333;PMS5003;62753;40.394;-80.022;2023-12-20T15:25:59;10;10;
74333;PMS5003;62753;40.394;-80.022;2023-12-20T15:28:25;10;8;
74333;PMS5003;62753;40.394;-80.022;2023-12-20T15:30:50;12;11;
74333;PMS5003;62753;40.394;-80.022;2023-12-20T15:33:15;9;9;
74333;PMS5003;62753;40.394;-80.022;2023-12-20T15:35:41;9;9;
74333;PMS5003;62753;40.394;-80.022;2023-12-20T15:38:07;12;11;
74333;PMS5003;62753;40.394;-80.022;2023-12-20T15:40:32;12;9;